Time;durP1;ratioP1;P1;durP2;ratioP2;P2;SDS_P1;SDS_P2;PMS_P1;PMS_P2;Temp;Humidity;BMP_temperature;BMP_pressure;BME280_temperature;BME280_humidity;BME280_pressure;Samples;Min_cycle;Max_cycle;Signal;HPM_P1;HPM_P2
2023/05/05 00:00:52;;;;;;;;;;;;;;;15.95;100.00;100056.31;5084008;28;19978;-78
2023/05/05 00:03:19;;;;;;;;;;;;;;;15.95;100.00;100056.31;5102217;28;19952;-78
2023/05/05 00:05:45;;;;;;;;;;;;;;;16.02;100.00;100055.63;5100274;28;19919;-78
2023/05/05 00:08:10;;;;;;;;;;;;;;;16.04;100.00;100053.63;5083948;28;20022;-77
2023/05/05 00:10:36;;;;;;;;;;;;;;;15.95;100.00;100050.13;5099807;28;19916;-78
2023/05/05 00:13:01;;;;;;;;;;;;;;;15.98;100.00;100045.31;5101687;28;19980;-78
2023/05/05 00:15:26;;;;;;;;;;;;;;;15.78;100.00;100053.78;5099053;28;19927;-78
2023/05/05 00:17:52;;;;;;;;;;;;;;;15.71;100.00;100053.59;5098938;28;20018;-78
2023/05/05 00:20:17;;;;;;;;;;;;;;;15.72;100.00;100049.94;5100676;28;19924;-77
2023/05/05 00:22:43;;;;;;;;;;;;;;;15.78;100.00;100051.97;5099744;28;19927;-76
2023/05/05 00:25:08;;;;;;;;;;;;;;;15.67;100.00;100052.25;5082522;28;20002;-77
2023/05/05 00:27:33;;;;;;;;;;;;;;;15.53;100.00;100052.88;5099026;28;19919;-76
2023/05/05 00:29:59;;;;;;;;;;;;;;;15.36;100.00;100053.81;5080258;28;19920;-77
2023/05/05 00:32:24;;;;;;;;;;;;;;;15.35;100.00;100046.81;5101187;28;19920;-75
2023/05/05 00:34:50;;;;;;;;;;;;;;;15.23;100.00;100042.78;5082978;28;19938;-77
2023/05/05 00:37:16;;;;;;;;;;;;;;;15.01;100.00;100044.19;5100008;28;19976;-77
2023/05/05 00:39:43;;;;;;;;;;;;;;;14.88;100.00;100041.13;5100675;28;20014;-77
2023/05/05 00:42:08;;;;;;;;;;;;;;;14.81;100.00;100043.59;5101643;28;20367;-77
2023/05/05 00:44:35;;;;;;;;;;;;;;;14.87;100.00;100040.31;5101610;28;20058;-76
2023/05/05 00:49:35;;;;;;;;;;;;;;;14.92;100.00;100035.34;5022427;28;20357;-83
2023/05/05 00:52:01;;;;;;;;;;;;;;;14.84;100.00;100034.47;5022565;28;19933;-82
2023/05/05 00:54:27;;;;;;;;;;;;;;;14.69;100.00;100029.75;5021521;28;20001;-83
2023/05/05 00:56:52;;;;;;;;;;;;;;;14.75;100.00;100034.44;5024119;28;20293;-83
2023/05/05 00:59:18;;;;;;;;;;;;;;;14.76;100.00;100029.94;5017247;28;20677;-82
2023/05/05 01:01:44;;;;;;;;;;;;;;;14.76;100.00;100035.25;5020735;28;19925;-81
2023/05/05 01:04:09;;;;;;;;;;;;;;;14.77;100.00;100030.78;5021314;28;19925;-81
2023/05/05 01:07:02;;;;;;;;;;;;;;;14.63;100.00;100019.75;5023260;28;20408;-81
2023/05/05 01:09:31;;;;;;;;;;;;;;;14.57;100.00;100027.50;5017448;28;19984;-80
2023/05/05 01:12:11;;;;;;;;;;;;;;;14.55;100.00;100026.84;5017173;28;19999;-80
2023/05/05 01:14:43;;;;;;;;;;;;;;;14.64;100.00;100020.59;5020077;28;19921;-81
2023/05/05 01:17:14;;;;;;;;;;;;;;;14.70;100.00;100019.97;5004682;28;19924;-81
2023/05/05 01:19:42;;;;;;;;;;;;;;;14.69;100.00;100012.97;5023888;28;20395;-80
2023/05/05 01:22:10;;;;;;;;;;;;;;;14.67;100.00;100022.91;5023148;28;19921;-80
2023/05/05 01:24:39;;;;;;;;;;;;;;;14.57;100.00;100019.53;5004530;28;19922;-80
2023/05/05 01:27:04;;;;;;;;;;;;;;;14.37;100.00;100018.06;5023647;28;19935;-79
2023/05/05 01:29:55;;;;;;;;;;;;;;;14.16;100.00;100021.91;5015797;28;19926;-81
2023/05/05 01:32:25;;;;;;;;;;;;;;;14.17;100.00;100012.13;5022327;28;20035;-81
2023/05/05 01:34:57;;;;;;;;;;;;;;;14.22;100.00;100018.63;5023511;28;19979;-83
2023/05/05 01:37:25;;;;;;;;;;;;;;;14.29;100.00;100019.69;5020853;28;20369;-84
2023/05/05 01:39:54;;;;;;;;;;;;;;;14.35;100.00;100020.88;5023615;28;19929;-86
2023/05/05 01:42:21;;;;;;;;;;;;;;;14.41;100.00;100024.75;5023173;28;19925;-82
2023/05/05 01:44:47;;;;;;;;;;;;;;;14.42;100.00;100021.97;5012007;28;20294;-86
2023/05/05 01:47:15;;;;;;;;;;;;;;;14.33;100.00;100018.38;4988201;28;19917;-86
2023/05/05 01:49:45;;;;;;;;;;;;;;;14.26;100.00;100022.63;5042518;28;20340;-85
2023/05/05 01:52:11;;;;;;;;;;;;;;;14.16;100.00;100019.25;5024403;28;20366;-82
2023/05/05 01:54:37;;;;;;;;;;;;;;;14.21;100.00;100019.59;5042253;28;19967;-81
2023/05/05 01:57:04;;;;;;;;;;;;;;;14.27;100.00;100023.47;5051916;28;19928;-82
2023/05/05 01:59:30;;;;;;;;;;;;;;;14.30;100.00;100023.16;5043945;28;20297;-82
2023/05/05 02:01:57;;;;;;;;;;;;;;;14.31;100.00;100020.34;5034428;28;19929;-80
2023/05/05 02:04:23;;;;;;;;;;;;;;;14.28;100.00;100018.00;5042627;28;19921;-81
2023/05/05 02:06:50;;;;;;;;;;;;;;;14.21;100.00;100013.47;5041030;28;20385;-81
2023/05/05 02:09:16;;;;;;;;;;;;;;;14.18;100.00;100019.09;5043424;28;19921;-81
2023/05/05 02:11:41;;;;;;;;;;;;;;;14.20;100.00;100017.94;5041176;28;19928;-81
2023/05/05 02:14:09;;;;;;;;;;;;;;;14.25;100.00;100015.69;5038812;28;20408;-79
2023/05/05 02:16:35;;;;;;;;;;;;;;;14.22;100.00;100015.97;5041568;28;20015;-82
2023/05/05 02:19:03;;;;;;;;;;;;;;;14.19;100.00;100016.28;5058079;28;19921;-81
2023/05/05 02:21:29;;;;;;;;;;;;;;;14.05;100.00;100013.34;5051453;28;20028;-80
2023/05/05 02:23:55;;;;;;;;;;;;;;;14.06;100.00;100015.84;5042710;28;20389;-83
2023/05/05 02:26:22;;;;;;;;;;;;;;;14.09;100.00;100020.84;5054703;28;19952;-83
2023/05/05 02:28:51;;;;;;;;;;;;;;;14.14;100.00;100023.03;5040238;28;20262;-84
2023/05/05 02:31:19;;;;;;;;;;;;;;;14.15;100.00;100030.84;5040234;28;19925;-87
2023/05/05 02:33:46;;;;;;;;;;;;;;;14.18;100.00;100024.41;5041399;28;19925;-87
2023/05/05 02:36:22;;;;;;;;;;;;;;;14.13;100.00;100027.53;5056471;28;19974;-88
2023/05/05 02:38:56;;;;;;;;;;;;;;;14.18;100.00;100025.25;5038089;28;20008;-85
2023/05/05 02:41:26;;;;;;;;;;;;;;;14.15;100.00;100030.00;5040836;28;19925;-85
2023/05/05 02:43:53;;;;;;;;;;;;;;;14.08;100.00;100029.78;5054779;28;19921;-84
2023/05/05 02:46:19;;;;;;;;;;;;;;;13.94;100.00;100025.03;5039781;28;19932;-85
2023/05/05 02:48:46;;;;;;;;;;;;;;;13.86;100.00;100025.78;5055641;28;19921;-85
2023/05/05 02:51:11;;;;;;;;;;;;;;;13.87;100.00;100022.16;5038943;28;19925;-85
2023/05/05 02:53:37;;;;;;;;;;;;;;;13.88;100.00;100023.00;5023956;28;19921;-84
2023/05/05 02:56:02;;;;;;;;;;;;;;;13.77;100.00;100025.88;5050605;28;19922;-84
2023/05/05 02:58:39;;;;;;;;;;;;;;;13.77;100.00;100021.41;5037680;28;19928;-84
2023/05/05 03:01:21;;;;;;;;;;;;;;;13.87;100.00;100021.31;5039467;28;19943;-81
2023/05/05 03:03:58;;;;;;;;;;;;;;;13.77;100.00;100015.25;5039853;28;19921;-83
2023/05/05 03:06:26;;;;;;;;;;;;;;;13.78;100.00;100017.75;5039191;28;19921;-82
2023/05/05 03:09:05;;;;;;;;;;;;;;;13.74;100.00;100010.25;5055392;28;19927;-82
2023/05/05 03:11:37;;;;;;;;;;;;;;;13.76;100.00;100011.78;5047083;28;19922;-80
2023/05/05 03:14:10;;;;;;;;;;;;;;;13.75;100.00;100017.22;5056183;28;19927;-81
2023/05/05 03:16:38;;;;;;;;;;;;;;;13.80;100.00;100022.91;5037343;28;19940;-80
2023/05/05 03:19:05;;;;;;;;;;;;;;;13.67;100.00;100010.03;5056683;28;20404;-79
2023/05/05 03:21:32;;;;;;;;;;;;;;;13.68;100.00;100010.84;5020610;28;19921;-79
2023/05/05 03:23:57;;;;;;;;;;;;;;;13.62;100.00;100008.81;5040399;28;20305;-80
2023/05/05 03:26:23;;;;;;;;;;;;;;;13.57;100.00;100008.44;5037113;28;19921;-80
2023/05/05 03:28:49;;;;;;;;;;;;;;;13.53;100.00;100008.75;5039161;28;20356;-81
2023/05/05 03:31:27;;;;;;;;;;;;;;;13.54;100.00;100020.19;5049690;28;19921;-81
2023/05/05 03:33:56;;;;;;;;;;;;;;;13.54;100.00;100012.22;5039074;28;20015;-82
2023/05/05 03:36:24;;;;;;;;;;;;;;;13.48;100.00;100011.03;5056898;28;19960;-82
2023/05/05 03:38:49;;;;;;;;;;;;;;;13.48;100.00;100016.31;5040515;28;19991;-81
2023/05/05 03:41:17;;;;;;;;;;;;;;;13.30;100.00;100023.41;5054546;28;20282;-81
2023/05/05 03:43:43;;;;;;;;;;;;;;;13.10;100.00;100021.81;5038448;28;19967;-81
2023/05/05 03:46:09;;;;;;;;;;;;;;;13.13;100.00;100021.56;5040335;28;20268;-80
2023/05/05 03:48:34;;;;;;;;;;;;;;;13.11;100.00;100026.13;5037433;28;19921;-80
2023/05/05 03:51:00;;;;;;;;;;;;;;;12.95;100.00;100028.59;5041318;28;19924;-80
2023/05/05 03:53:29;;;;;;;;;;;;;;;12.99;100.00;100020.19;5049977;28;19922;-80
2023/05/05 03:55:54;;;;;;;;;;;;;;;13.08;100.00;100024.59;5039936;28;19920;-83
2023/05/05 03:58:19;;;;;;;;;;;;;;;13.02;100.00;100024.34;5038045;28;19924;-82
2023/05/05 04:00:45;;;;;;;;;;;;;;;12.91;100.00;100027.19;5039955;28;19925;-82
2023/05/05 04:03:10;;;;;;;;;;;;;;;12.90;100.00;100029.00;5055576;28;19928;-82
2023/05/05 04:05:36;;;;;;;;;;;;;;;12.79;100.00;100033.66;5056173;28;20381;-82
2023/05/05 04:08:02;;;;;;;;;;;;;;;12.64;100.00;100025.34;5032831;28;19922;-84
2023/05/05 04:10:28;;;;;;;;;;;;;;;12.65;100.00;100033.16;5039316;28;19921;-84
2023/05/05 04:12:54;;;;;;;;;;;;;;;12.69;100.00;100029.25;5041845;28;19928;-82
2023/05/05 04:15:19;;;;;;;;;;;;;;;12.65;100.00;100025.22;5057986;28;19956;-81
2023/05/05 04:17:45;;;;;;;;;;;;;;;12.71;100.00;100032.59;5068579;28;19922;-81
2023/05/05 04:20:10;;;;;;;;;;;;;;;12.77;100.00;100030.34;5064217;28;19937;-81
2023/05/05 04:22:35;;;;;;;;;;;;;;;12.93;100.00;100031.38;5069199;28;20271;-82
2023/05/05 04:25:03;;;;;;;;;;;;;;;13.05;100.00;100024.06;5044306;28;19928;-82
2023/05/05 04:27:29;;;;;;;;;;;;;;;13.15;100.00;100030.19;5057834;28;19921;-81
2023/05/05 04:29:56;;;;;;;;;;;;;;;13.28;100.00;100030.66;5057616;28;19921;-83
2023/05/05 04:32:21;;;;;;;;;;;;;;;13.37;100.00;100024.47;5040849;28;19925;-85
2023/05/05 04:34:47;;;;;;;;;;;;;;;13.37;100.00;100032.41;5058852;28;20294;-87
2023/05/05 04:37:13;;;;;;;;;;;;;;;13.51;100.00;100031.91;5059360;28;19920;-84
2023/05/05 04:39:38;;;;;;;;;;;;;;;13.60;100.00;100029.34;5039496;28;20008;-80
2023/05/05 04:42:04;;;;;;;;;;;;;;;13.62;100.00;100037.97;5043420;28;19971;-80
2023/05/05 04:44:30;;;;;;;;;;;;;;;13.70;100.00;100030.94;5058724;28;20416;-79
2023/05/05 04:46:55;;;;;;;;;;;;;;;13.76;100.00;100030.34;5043185;28;19927;-81
2023/05/05 04:49:21;;;;;;;;;;;;;;;13.81;100.00;100027.22;5040422;28;19925;-81
2023/05/05 04:51:46;;;;;;;;;;;;;;;13.89;100.00;100027.31;5060448;28;19921;-80
2023/05/05 04:54:12;;;;;;;;;;;;;;;13.89;100.00;100035.28;5056253;28;19928;-79
2023/05/05 04:56:37;;;;;;;;;;;;;;;13.93;100.00;100028.66;5044199;28;19921;-80
2023/05/05 04:59:02;;;;;;;;;;;;;;;13.99;100.00;100030.72;5041341;28;20412;-81
2023/05/05 05:01:28;;;;;;;;;;;;;;;14.04;100.00;100041.69;5059962;28;19990;-83
2023/05/05 05:03:54;;;;;;;;;;;;;;;14.05;100.00;100034.56;5039956;28;19922;-81
2023/05/05 05:06:19;;;;;;;;;;;;;;;14.02;100.00;100035.69;5057743;28;19929;-80
2023/05/05 05:08:44;;;;;;;;;;;;;;;14.10;100.00;100046.38;5042432;28;19979;-81
2023/05/05 05:11:10;;;;;;;;;;;;;;;14.09;100.00;100047.38;5043326;28;20361;-79
2023/05/05 05:13:35;;;;;;;;;;;;;;;14.12;100.00;100054.22;5043798;28;19974;-80
2023/05/05 05:16:00;;;;;;;;;;;;;;;14.06;100.00;100046.84;5039557;28;19975;-80
2023/05/05 05:18:26;;;;;;;;;;;;;;;13.98;100.00;100050.25;5051211;28;19928;-81
2023/05/05 05:20:52;;;;;;;;;;;;;;;13.90;100.00;100063.47;5056166;28;19921;-80
2023/05/05 05:23:18;;;;;;;;;;;;;;;13.82;100.00;100060.72;5044403;28;19925;-81
2023/05/05 05:25:44;;;;;;;;;;;;;;;13.73;100.00;100066.94;5040952;28;19967;-81
2023/05/05 05:28:11;;;;;;;;;;;;;;;13.77;100.00;100070.97;5039580;28;19929;-80
2023/05/05 05:30:43;;;;;;;;;;;;;;;13.79;100.00;100067.16;5038518;28;20004;-80
2023/05/05 05:33:10;;;;;;;;;;;;;;;13.90;100.00;100071.44;5053502;28;19925;-82
2023/05/05 05:35:35;;;;;;;;;;;;;;;13.87;100.00;100069.06;5038022;28;20392;-80
2023/05/05 05:38:02;;;;;;;;;;;;;;;13.87;100.00;100074.38;5057967;28;19929;-81
2023/05/05 05:40:28;;;;;;;;;;;;;;;13.80;100.00;100075.97;5040748;28;19921;-82
2023/05/05 05:42:54;;;;;;;;;;;;;;;13.83;100.00;100067.72;5052985;28;20017;-80
2023/05/05 05:45:20;;;;;;;;;;;;;;;13.82;100.00;100069.53;5052424;28;20378;-80
2023/05/05 05:47:46;;;;;;;;;;;;;;;13.88;100.00;100076.06;5033511;28;20011;-80
2023/05/05 05:50:11;;;;;;;;;;;;;;;13.91;100.00;100065.13;5049239;28;20021;-79
2023/05/05 05:52:37;;;;;;;;;;;;;;;14.05;100.00;100072.56;5038064;28;19948;-79
2023/05/05 05:55:05;;;;;;;;;;;;;;;14.18;100.00;100074.81;5033611;28;19920;-80
2023/05/05 05:57:30;;;;;;;;;;;;;;;14.35;100.00;100080.13;5039071;28;20331;-80
2023/05/05 05:59:56;;;;;;;;;;;;;;;14.42;100.00;100079.53;5040116;28;19933;-79
2023/05/05 06:02:22;;;;;;;;;;;;;;;14.54;100.00;100080.94;5058164;28;19990;-80
2023/05/05 06:04:48;;;;;;;;;;;;;;;14.73;100.00;100078.91;5036909;28;19925;-81
2023/05/05 06:07:14;;;;;;;;;;;;;;;14.90;100.00;100085.19;5038637;28;20282;-81
2023/05/05 06:09:40;;;;;;;;;;;;;;;14.98;100.00;100087.84;5054373;28;19939;-80
2023/05/05 06:12:05;;;;;;;;;;;;;;;15.04;100.00;100087.22;5052093;28;20376;-80
2023/05/05 06:14:31;;;;;;;;;;;;;;;15.18;100.00;100087.63;5042997;28;19975;-80
2023/05/05 06:16:56;;;;;;;;;;;;;;;15.32;100.00;100089.66;5051196;28;19984;-80
2023/05/05 06:19:24;;;;;;;;;;;;;;;15.32;100.00;100081.69;5057491;28;19921;-80
2023/05/05 06:21:50;;;;;;;;;;;;;;;15.37;100.00;100080.25;5054921;28;19924;-80
2023/05/05 06:24:15;;;;;;;;;;;;;;;15.42;100.00;100074.44;5040760;28;19960;-80
2023/05/05 06:26:40;;;;;;;;;;;;;;;15.50;100.00;100085.09;5039904;28;19920;-80
2023/05/05 06:29:06;;;;;;;;;;;;;;;15.58;100.00;100079.84;5039500;28;19974;-80
2023/05/05 06:31:31;;;;;;;;;;;;;;;15.72;100.00;100087.19;5057445;28;19933;-80
2023/05/05 06:33:56;;;;;;;;;;;;;;;15.80;100.00;100079.22;5039039;28;19967;-81
2023/05/05 06:36:22;;;;;;;;;;;;;;;15.87;100.00;100090.88;5055473;28;19921;-80
2023/05/05 06:38:47;;;;;;;;;;;;;;;16.00;100.00;100089.56;5055263;28;19984;-80
2023/05/05 06:41:12;;;;;;;;;;;;;;;16.06;100.00;100083.59;5055290;28;19928;-80
2023/05/05 06:43:38;;;;;;;;;;;;;;;16.20;100.00;100081.09;5039452;28;19928;-79
2023/05/05 06:46:10;;;;;;;;;;;;;;;16.35;100.00;100089.25;5039375;28;19928;-80
2023/05/05 06:48:35;;;;;;;;;;;;;;;16.43;100.00;100085.75;5034544;28;19960;-80
2023/05/05 06:51:01;;;;;;;;;;;;;;;16.59;100.00;100091.94;5030907;28;19993;-81
2023/05/05 06:53:26;;;;;;;;;;;;;;;16.62;100.00;100088.09;5030136;28;20012;-81
2023/05/05 06:55:51;;;;;;;;;;;;;;;16.73;100.00;100093.91;5028646;28;19939;-79
2023/05/05 06:58:17;;;;;;;;;;;;;;;16.74;100.00;100090.25;5029525;28;19922;-80
2023/05/05 07:00:42;;;;;;;;;;;;;;;16.92;100.00;100086.53;5032045;28;19927;-81
2023/05/05 07:03:07;;;;;;;;;;;;;;;17.05;100.00;100087.66;5031008;28;19948;-79
2023/05/05 07:05:33;;;;;;;;;;;;;;;17.20;100.00;100087.78;5037668;28;20685;-78
2023/05/05 07:07:58;;;;;;;;;;;;;;;17.39;100.00;100090.03;5034906;28;19928;-81
2023/05/05 07:10:24;;;;;;;;;;;;;;;17.47;100.00;100084.69;5033043;28;19921;-79
2023/05/05 07:12:50;;;;;;;;;;;;;;;17.59;100.00;100085.94;5031840;28;19952;-79
2023/05/05 07:15:16;;;;;;;;;;;;;;;17.73;100.00;100087.06;5053502;28;19925;-80
2023/05/05 07:17:41;;;;;;;;;;;;;;;17.88;100.00;100089.81;5034579;28;20028;-81
2023/05/05 07:20:07;;;;;;;;;;;;;;;17.99;100.00;100089.41;5025446;28;19944;-80
2023/05/05 07:22:32;;;;;;;;;;;;;;;17.97;100.00;100088.75;5028616;28;19921;-81
2023/05/05 07:24:58;;;;;;;;;;;;;;;18.12;100.00;100094.16;5030345;28;19955;-81
2023/05/05 07:27:23;;;;;;;;;;;;;;;18.17;100.00;100092.63;5030802;28;20020;-82
2023/05/05 07:29:48;;;;;;;;;;;;;;;18.25;100.00;100086.38;5047373;28;19922;-81
2023/05/05 07:32:14;;;;;;;;;;;;;;;18.30;100.00;100092.84;5030592;28;19991;-80
2023/05/05 07:34:39;;;;;;;;;;;;;;;18.39;100.00;100088.25;5032039;28;19925;-80
2023/05/05 07:37:05;;;;;;;;;;;;;;;18.48;100.00;100091.69;5031107;28;19996;-79
2023/05/05 07:39:31;;;;;;;;;;;;;;;18.58;100.00;100092.31;5030594;28;19993;-80
2023/05/05 07:41:56;;;;;;;;;;;;;;;18.69;100.00;100094.53;5034986;28;19927;-81
2023/05/05 07:44:22;;;;;;;;;;;;;;;18.73;100.00;100085.97;5048804;28;20027;-81
2023/05/05 07:46:47;;;;;;;;;;;;;;;18.85;100.00;100091.69;5033831;28;19968;-81
2023/05/05 07:49:13;;;;;;;;;;;;;;;18.94;100.00;100090.59;5037534;28;19921;-78
2023/05/05 07:51:38;;;;;;;;;;;;;;;18.88;100.00;100087.84;5030843;28;19976;-79
2023/05/05 07:54:04;;;;;;;;;;;;;;;18.93;100.00;100086.25;5033831;28;19921;-80
2023/05/05 07:56:30;;;;;;;;;;;;;;;18.99;100.00;100090.88;5036069;28;20063;-80
2023/05/05 07:58:55;;;;;;;;;;;;;;;19.07;100.00;100092.66;5036516;28;20765;-79
2023/05/05 08:01:20;;;;;;;;;;;;;;;19.14;100.00;100089.03;5038265;28;19934;-79
2023/05/05 08:03:46;;;;;;;;;;;;;;;19.23;100.00;100093.28;5038761;28;19928;-79
2023/05/05 08:06:14;;;;;;;;;;;;;;;19.36;100.00;100095.31;5057115;28;19920;-80
2023/05/05 08:08:40;;;;;;;;;;;;;;;19.44;100.00;100092.50;5043367;28;19925;-78
2023/05/05 08:11:05;;;;;;;;;;;;;;;19.47;100.00;100084.16;5041618;28;20403;-78
2023/05/05 08:13:31;;;;;;;;;;;;;;;19.56;100.00;100090.22;5037195;28;19921;-79
2023/05/05 08:15:56;;;;;;;;;;;;;;;19.62;100.00;100092.13;5037300;28;19974;-78
2023/05/05 08:18:21;;;;;;;;;;;;;;;19.66;100.00;100082.72;5036026;28;19929;-81
2023/05/05 08:20:46;;;;;;;;;;;;;;;19.73;100.00;100083.66;5043042;28;19920;-79
2023/05/05 08:23:12;;;;;;;;;;;;;;;19.81;100.00;100088.88;5036884;28;19921;-76
2023/05/05 08:25:37;;;;;;;;;;;;;;;19.86;100.00;100082.94;5036096;28;19932;-77
2023/05/05 08:28:02;;;;;;;;;;;;;;;19.95;100.00;100088.00;5032168;28;19921;-77
2023/05/05 08:30:28;;;;;;;;;;;;;;;20.01;100.00;100081.88;5037517;28;20016;-77
2023/05/05 08:32:54;;;;;;;;;;;;;;;20.09;98.82;100082.78;5037394;28;20310;-77
2023/05/05 08:35:19;;;;;;;;;;;;;;;20.13;97.73;100073.34;5035530;28;19929;-77
2023/05/05 08:37:44;;;;;;;;;;;;;;;20.10;96.85;100079.06;5034744;28;20059;-76
2023/05/05 08:40:11;;;;;;;;;;;;;;;20.12;95.66;100067.16;5032629;28;19929;-76
2023/05/05 08:42:36;;;;;;;;;;;;;;;20.20;95.63;100063.50;5043789;28;20008;-76
2023/05/05 08:45:02;;;;;;;;;;;;;;;20.29;96.36;100063.19;5042756;28;20011;-77
2023/05/05 08:47:27;;;;;;;;;;;;;;;20.42;97.14;100070.53;5039892;28;20378;-77
2023/05/05 08:49:54;;;;;;;;;;;;;;;20.52;96.73;100071.03;5035458;28;19921;-77
2023/05/05 08:52:23;;;;;;;;;;;;;;;20.59;96.43;100063.88;5034545;28;20744;-77
2023/05/05 08:54:54;;;;;;;;;;;;;;;20.69;95.68;100061.66;5033884;28;20055;-77
2023/05/05 08:57:24;;;;;;;;;;;;;;;20.72;94.64;100058.59;5033727;28;19924;-78
2023/05/05 08:59:50;;;;;;;;;;;;;;;20.80;93.30;100066.47;5033792;28;20387;-77
2023/05/05 09:02:15;;;;;;;;;;;;;;;20.88;92.30;100051.25;5037247;28;19928;-78
2023/05/05 09:04:41;;;;;;;;;;;;;;;21.01;91.66;100059.38;5034309;28;19925;-77
2023/05/05 09:07:07;;;;;;;;;;;;;;;21.04;91.10;100056.28;5034579;28;19953;-78
2023/05/05 09:09:32;;;;;;;;;;;;;;;21.02;90.72;100050.31;5036209;28;20015;-77
2023/05/05 09:11:58;;;;;;;;;;;;;;;21.10;90.34;100052.81;5036942;28;20020;-78
2023/05/05 09:14:23;;;;;;;;;;;;;;;21.14;90.09;100043.38;5036643;28;19921;-77
2023/05/05 09:16:49;;;;;;;;;;;;;;;21.18;89.76;100041.97;5033968;28;20289;-78
2023/05/05 09:19:14;;;;;;;;;;;;;;;21.24;89.84;100041.16;5042045;28;20766;-78
2023/05/05 09:21:46;;;;;;;;;;;;;;;21.23;86.61;100044.88;5036498;28;19970;-78
2023/05/05 09:24:14;;;;;;;;;;;;;;;21.18;86.02;100047.34;5039825;28;19927;-77
2023/05/05 09:26:44;;;;;;;;;;;;;;;21.14;86.53;100038.00;5042012;28;20773;-77
2023/05/05 09:29:15;;;;;;;;;;;;;;;21.09;87.04;100037.75;5039566;28;19921;-77
2023/05/05 09:31:41;;;;;;;;;;;;;;;21.09;88.19;100037.75;5041161;28;19933;-76
2023/05/05 09:34:16;;;;;;;;;;;;;;;21.12;86.51;100037.38;5042293;28;19930;-76
2023/05/05 09:36:48;;;;;;;;;;;;;;;21.12;84.30;100037.38;5040089;28;20377;-75
2023/05/05 09:39:18;;;;;;;;;;;;;;;21.15;83.35;100028.94;5056330;28;19978;-77
2023/05/05 09:41:44;;;;;;;;;;;;;;;21.21;81.81;100026.28;5043785;28;19921;-77
2023/05/05 09:44:11;;;;;;;;;;;;;;;21.32;79.20;100016.84;5041498;28;19926;-77
2023/05/05 09:46:37;;;;;;;;;;;;;;;21.42;79.13;100022.66;5040008;28;19967;-78
2023/05/05 09:49:18;;;;;;;;;;;;;;;21.50;79.71;100019.78;5042588;28;19925;-77
2023/05/05 09:51:46;;;;;;;;;;;;;;;21.56;79.58;100018.13;5041368;28;20270;-77
2023/05/05 09:54:24;;;;;;;;;;;;;;;21.62;79.07;100014.63;5056087;28;20031;-77
2023/05/05 09:56:51;;;;;;;;;;;;;;;21.63;77.55;100011.75;5041986;28;19924;-77
2023/05/05 09:59:16;;;;;;;;;;;;;;;21.71;77.13;100015.28;5040417;28;19921;-78
2023/05/05 10:01:42;;;;;;;;;;;;;;;21.80;76.71;100014.88;5053638;28;20302;-77
2023/05/05 10:04:21;;;;;;;;;;;;;;;21.84;75.89;100009.94;5041791;28;19950;-77
2023/05/05 10:06:46;;;;;;;;;;;;;;;21.85;74.52;100003.56;5041527;28;19925;-77
2023/05/05 10:09:12;;;;;;;;;;;;;;;21.93;75.20;100008.72;5039569;28;20442;-78
2023/05/05 10:11:39;;;;;;;;;;;;;;;22.00;74.58;100001.53;5042467;28;19924;-77
2023/05/05 10:14:05;;;;;;;;;;;;;;;22.07;73.68;100010.41;5041932;28;20004;-77
2023/05/05 10:16:31;;;;;;;;;;;;;;;22.13;72.46;100004.22;5038064;28;20031;-78
2023/05/05 10:19:00;;;;;;;;;;;;;;;22.15;71.59;100002.13;5034925;28;20350;-78
2023/05/05 10:21:26;;;;;;;;;;;;;;;22.20;72.33;99999.69;5042267;28;20106;-77
2023/05/05 10:24:12;;;;;;;;;;;;;;;22.28;69.09;99999.44;5039586;28;19955;-77
2023/05/05 10:26:40;;;;;;;;;;;;;;;22.30;68.18;99989.31;5037385;28;19933;-77
2023/05/05 10:29:27;;;;;;;;;;;;;;;22.28;69.43;99983.31;5041640;28;19999;-77
2023/05/05 10:31:53;;;;;;;;;;;;;;;22.31;69.38;99982.91;5037398;28;19929;-77
2023/05/05 10:34:36;;;;;;;;;;;;;;;22.35;69.19;99986.84;5039267;28;19929;-77
2023/05/05 10:37:03;;;;;;;;;;;;;;;22.45;67.70;99984.53;5035080;28;20293;-77
2023/05/05 10:39:29;;;;;;;;;;;;;;;22.55;66.35;99984.13;5038859;28;20296;-77
2023/05/05 10:41:57;;;;;;;;;;;;;;;22.62;63.63;99984.13;5042932;28;19921;-78
2023/05/05 10:44:23;;;;;;;;;;;;;;;22.65;62.56;99975.63;5039234;28;19921;-78
2023/05/05 10:46:48;;;;;;;;;;;;;;;22.70;63.65;99975.81;5040572;28;20436;-78
2023/05/05 10:49:16;;;;;;;;;;;;;;;22.75;64.05;99976.03;5039545;28;19921;-77
2023/05/05 10:51:45;;;;;;;;;;;;;;;22.74;64.20;99966.28;5039635;28;19988;-77
2023/05/05 10:54:13;;;;;;;;;;;;;;;22.77;63.40;99968.56;5039904;28;20376;-77
2023/05/05 10:56:40;;;;;;;;;;;;;;;22.85;63.73;99957.59;5039236;28;19921;-78
2023/05/05 10:59:23;;;;;;;;;;;;;;;23.00;64.04;99947.38;5040792;28;20421;-77
2023/05/05 11:01:50;;;;;;;;;;;;;;;23.06;65.29;99946.53;5040596;28;20043;-77
2023/05/05 11:04:22;;;;;;;;;;;;;;;23.15;66.34;99939.84;5037618;28;19932;-78
2023/05/05 11:07:06;;;;;;;;;;;;;;;23.20;67.01;99931.97;5040322;28;19921;-79
2023/05/05 11:09:32;;;;;;;;;;;;;;;23.28;66.97;99933.56;5034774;28;19920;-77
2023/05/05 11:12:01;;;;;;;;;;;;;;;23.44;67.41;99938.47;5056931;28;19927;-77
2023/05/05 11:14:26;;;;;;;;;;;;;;;23.53;66.26;99930.97;5038189;28;19987;-77
2023/05/05 11:16:53;;;;;;;;;;;;;;;23.54;67.21;99922.69;5040911;28;20446;-77
2023/05/05 11:19:37;;;;;;;;;;;;;;;23.60;66.47;99923.66;5038179;28;19920;-78
2023/05/05 11:22:03;;;;;;;;;;;;;;;23.71;64.56;99922.97;5034509;28;19975;-77
2023/05/05 11:24:28;;;;;;;;;;;;;;;23.81;65.60;99923.28;5041348;28;20034;-78
2023/05/05 11:26:54;;;;;;;;;;;;;;;23.93;65.41;99915.31;5038253;28;20029;-78
2023/05/05 11:29:19;;;;;;;;;;;;;;;23.98;64.64;99910.91;5039931;28;19964;-78
2023/05/05 11:32:05;;;;;;;;;;;;;;;24.04;64.57;99915.41;5035739;28;20389;-77
2023/05/05 11:34:30;;;;;;;;;;;;;;;24.09;63.46;99910.19;5033491;28;19933;-78
2023/05/05 11:36:56;;;;;;;;;;;;;;;24.11;62.99;99906.44;5033502;28;20509;-78
2023/05/05 11:39:26;;;;;;;;;;;;;;;24.13;63.04;99904.34;5030492;28;20428;-78
2023/05/05 11:42:10;;;;;;;;;;;;;;;24.17;62.79;99894.78;5040208;28;19921;-78
2023/05/05 11:44:35;;;;;;;;;;;;;;;24.11;61.85;99891.09;5034255;28;20012;-80
2023/05/05 11:47:23;;;;;;;;;;;;;;;24.00;61.81;99895.34;5038866;28;20027;-78
2023/05/05 11:49:49;;;;;;;;;;;;;;;24.00;62.96;99889.97;5018439;28;20425;-80
2023/05/05 11:52:15;;;;;;;;;;;;;;;23.98;62.57;99886.66;5003207;28;19964;-78
2023/05/05 11:54:49;;;;;;;;;;;;;;;24.02;63.64;99887.03;5020337;28;19956;-80
2023/05/05 11:57:16;;;;;;;;;;;;;;;24.13;63.60;99878.22;5010343;28;19933;-80
2023/05/05 11:59:54;;;;;;;;;;;;;;;24.22;62.84;99881.47;5010403;28;19938;-80
2023/05/05 12:02:19;;;;;;;;;;;;;;;24.31;61.68;99880.16;5019242;28;20028;-81
2023/05/05 12:04:45;;;;;;;;;;;;;;;24.38;61.74;99875.50;5017034;28;20356;-78
2023/05/05 12:07:17;;;;;;;;;;;;;;;24.46;59.84;99877.88;5008831;28;19928;-78
2023/05/05 12:09:44;;;;;;;;;;;;;;;24.52;59.44;99871.59;5014026;28;19996;-79
2023/05/05 12:12:10;;;;;;;;;;;;;;;24.67;58.62;99858.56;5017279;28;19921;-78
2023/05/05 12:14:43;;;;;;;;;;;;;;;24.66;58.28;99861.47;5016296;28;20276;-78
2023/05/05 12:17:08;;;;;;;;;;;;;;;24.82;57.48;99853.56;5015560;28;19922;-79
2023/05/05 12:19:34;;;;;;;;;;;;;;;25.09;58.10;99855.97;5018417;28;19921;-81
2023/05/05 12:22:00;;;;;;;;;;;;;;;25.31;56.89;99854.38;5017805;28;20005;-79
2023/05/05 12:24:26;;;;;;;;;;;;;;;25.36;56.38;99851.78;5021250;28;19921;-79
2023/05/05 12:26:51;;;;;;;;;;;;;;;25.33;56.59;99852.25;5014601;28;19929;-78
2023/05/05 12:29:23;;;;;;;;;;;;;;;25.47;55.07;99850.16;5010819;28;20366;-77
2023/05/05 12:31:49;;;;;;;;;;;;;;;25.59;55.37;99845.63;5010854;28;19921;-79
2023/05/05 12:34:15;;;;;;;;;;;;;;;25.79;54.50;99834.50;4991466;28;19997;-79